Time;durP1;ratioP1;P1;durP2;ratioP2;P2;SDS_P1;SDS_P2;PMS_P1;PMS_P2;Temp;Humidity;BMP_temperature;BMP_pressure;BME280_temperature;BME280_humidity;BME280_pressure;Samples;Min_cycle;Max_cycle;Signal;HPM_P1;HPM_P2
2023/03/07 00:01:22;;;;;;;27.88;17.67;;;2.60;99.90;;;1.23;100.00;96184.25;4915748;29;20821;-77
2023/03/07 00:03:48;;;;;;;33.92;19.67;;;2.50;99.90;;;1.23;100.00;96188.66;4915890;29;20414;-77
2023/03/07 00:06:14;;;;;;;30.93;18.50;;;2.50;99.90;;;1.21;100.00;96195.88;4915833;29;20905;-77
2023/03/07 00:08:40;;;;;;;34.70;20.67;;;2.50;99.90;;;1.18;100.00;96189.34;4915725;29;20504;-77
2023/03/07 00:11:08;;;;;;;34.00;19.55;;;2.40;99.90;;;1.19;100.00;96190.13;4915323;29;20516;-77
2023/03/07 00:13:37;;;;;;;31.88;19.35;;;2.50;99.90;;;1.20;100.00;96197.72;4915420;29;20452;-77
2023/03/07 00:16:05;;;;;;;33.97;19.15;;;2.50;99.90;;;1.20;100.00;96189.91;4915691;29;20417;-77
2023/03/07 00:18:32;;;;;;;30.13;18.08;;;2.50;99.90;;;1.21;100.00;96194.09;4915482;29;20422;-76
2023/03/07 00:20:59;;;;;;;33.90;18.88;;;2.50;99.90;;;1.22;100.00;96193.06;4915362;29;20825;-77
2023/03/07 00:23:25;;;;;;;32.17;18.48;;;2.50;99.90;;;1.24;100.00;96187.63;4915222;29;20492;-77
2023/03/07 00:25:58;;;;;;;37.23;19.50;;;2.50;99.90;;;1.24;100.00;96185.84;4915439;29;20440;-76
2023/03/07 00:28:23;;;;;;;30.65;18.58;;;2.50;99.90;;;1.24;100.00;96193.66;4915427;29;20541;-76
2023/03/07 00:30:51;;;;;;;34.05;19.25;;;2.50;99.90;;;1.26;100.00;96185.63;4915165;29;20437;-76
2023/03/07 00:33:17;;;;;;;32.92;18.02;;;2.50;99.90;;;1.28;100.00;96188.81;4914872;29;20749;-76
2023/03/07 00:35:43;;;;;;;30.73;17.70;;;2.50;99.90;;;1.31;100.00;96185.75;4915160;29;20452;-77
2023/03/07 00:38:09;;;;;;;38.27;20.73;;;2.60;99.90;;;1.37;100.00;96179.63;4915053;29;20417;-76
2023/03/07 00:40:34;;;;;;;37.08;20.55;;;2.60;99.90;;;1.36;100.00;96175.44;4914938;29;20413;-77
2023/03/07 00:43:00;;;;;;;31.88;18.70;;;2.60;99.90;;;1.38;100.00;96179.41;4914721;29;20409;-76
2023/03/07 00:45:26;;;;;;;32.87;19.03;;;2.60;99.90;;;1.40;100.00;96172.19;4914963;29;20420;-77
2023/03/07 00:47:55;;;;;;;34.25;19.73;;;2.60;99.90;;;1.46;100.00;96158.25;4914921;29;20445;-77
2023/03/07 00:50:20;;;;;;;30.92;18.88;;;2.70;99.90;;;1.40;100.00;96142.69;4914296;29;20429;-77
2023/03/07 00:52:46;;;;;;;28.23;16.98;;;2.60;99.90;;;1.31;100.00;96149.25;4913936;29;20421;-77
2023/03/07 00:55:12;;;;;;;29.53;16.67;;;2.50;99.90;;;1.29;100.00;96143.44;4914542;29;20858;-77
2023/03/07 00:57:38;;;;;;;30.58;17.23;;;2.50;99.90;;;1.33;100.00;96147.22;4914520;29;20413;-77
2023/03/07 01:00:06;;;;;;;29.13;17.33;;;2.60;99.90;;;1.36;100.00;96147.56;4913738;29;20405;-76
2023/03/07 01:02:32;;;;;;;28.77;17.33;;;2.60;99.90;;;1.36;100.00;96144.94;4913985;29;20405;-77
2023/03/07 01:04:59;;;;;;;26.73;16.98;;;2.60;99.90;;;1.38;100.00;96134.28;4914511;29;20410;-76
2023/03/07 01:07:25;;;;;;;31.05;17.92;;;2.60;99.90;;;1.38;100.00;96140.31;4914769;29;20409;-76
2023/03/07 01:09:52;;;;;;;27.65;16.77;;;2.60;99.90;;;1.43;100.00;96131.81;4914672;29;20432;-76
2023/03/07 01:12:18;;;;;;;26.55;16.15;;;2.60;99.90;;;1.43;100.00;96137.03;4914035;29;20938;-76
2023/03/07 01:14:43;;;;;;;29.13;16.75;;;2.70;99.90;;;1.47;100.00;96131.16;4914555;29;20417;-76
2023/03/07 01:17:09;;;;;;;27.33;16.90;;;2.70;99.90;;;1.49;100.00;96126.50;4914456;29;20511;-77
2023/03/07 01:19:35;;;;;;;27.97;16.60;;;2.70;99.90;;;1.44;100.00;96138.63;4914351;29;20410;-76
2023/03/07 01:22:03;;;;;;;26.98;15.75;;;2.70;99.90;;;1.44;100.00;96133.41;4914068;29;20472;-77
2023/03/07 01:24:28;;;;;;;26.85;15.77;;;2.70;99.90;;;1.47;100.00;96135.56;4914404;29;20407;-76
2023/03/07 01:26:54;;;;;;;27.58;16.30;;;2.70;99.90;;;1.62;100.00;96138.53;4914386;29;20444;-77
2023/03/07 01:29:20;;;;;;;27.07;16.20;;;2.80;99.90;;;1.58;100.00;96132.16;4914292;29;20454;-76
2023/03/07 01:31:46;;;;;;;28.35;16.27;;;2.80;99.90;;;1.47;100.00;96141.56;4913830;29;20795;-76
2023/03/07 01:34:12;;;;;;;22.45;14.15;;;2.70;99.90;;;1.47;100.00;96135.56;4914183;29;20409;-77
2023/03/07 01:36:38;;;;;;;23.80;15.13;;;2.70;99.90;;;1.44;100.00;96126.38;4914197;29;20421;-77
2023/03/07 01:39:11;;;;;;;23.17;15.05;;;2.70;99.90;;;1.43;100.00;96132.59;4914284;29;20421;-76
2023/03/07 01:41:37;;;;;;;23.80;15.27;;;2.70;99.90;;;1.48;100.00;96124.91;4912692;29;20409;-75
2023/03/07 01:44:12;;;;;;;28.20;15.27;;;2.70;99.90;;;1.52;100.00;96114.81;4914194;29;20749;-75
2023/03/07 01:46:43;;;;;;;27.30;15.90;;;2.70;99.90;;;1.50;100.00;96115.03;4914097;29;20465;-76
2023/03/07 01:49:20;;;;;;;28.08;16.00;;;2.70;99.90;;;1.49;100.00;96110.88;4914200;29;20421;-76
2023/03/07 01:51:51;;;;;;;30.80;16.55;;;2.70;99.90;;;1.46;100.00;96118.34;4913661;29;20425;-75
2023/03/07 01:54:21;;;;;;;26.65;15.88;;;2.70;99.90;;;1.54;100.00;96108.38;4914199;29;20885;-75
2023/03/07 01:56:47;;;;;;;26.27;15.70;;;2.80;99.90;;;1.56;100.00;96105.53;4914124;29;20884;-76
2023/03/07 01:59:20;;;;;;;27.42;15.77;;;2.80;99.90;;;1.55;100.00;96109.97;4914002;29;20424;-75
2023/03/07 02:01:47;;;;;;;21.88;14.20;;;2.80;99.90;;;1.58;100.00;96115.75;4913716;29;20466;-76
2023/03/07 02:04:19;;;;;;;28.48;17.20;;;2.80;99.90;;;1.51;100.00;96111.41;4914012;29;20405;-75
2023/03/07 02:06:45;;;;;;;25.98;15.57;;;2.70;99.90;;;1.54;100.00;96104.97;4914017;29;20420;-75
2023/03/07 02:09:17;;;;;;;26.67;16.40;;;2.80;99.90;;;1.51;100.00;96098.38;4913989;29;20461;-76
2023/03/07 02:11:46;;;;;;;26.17;16.02;;;2.80;99.90;;;1.52;100.00;96093.97;4914028;29;20466;-75
2023/03/07 02:14:12;;;;;;;25.33;15.48;;;2.70;99.90;;;1.54;100.00;96094.53;4917841;29;20405;-75
2023/03/07 02:16:38;;;;;;;24.92;16.23;;;2.80;99.90;;;1.49;100.00;96092.63;4917654;29;20420;-75
2023/03/07 02:19:20;;;;;;;28.25;16.92;;;2.70;99.90;;;1.53;100.00;96100.75;4917599;29;20814;-75
2023/03/07 02:21:58;;;;;;;26.83;16.80;;;2.80;99.90;;;1.58;100.00;96098.25;4917279;29;20439;-75
2023/03/07 02:24:31;;;;;;;23.73;15.27;;;2.80;99.90;;;1.55;100.00;96096.94;4917549;29;20768;-76
2023/03/07 02:26:58;;;;;;;26.10;15.80;;;2.80;99.90;;;1.51;100.00;96098.38;4917506;29;20507;-76
2023/03/07 02:29:24;;;;;;;24.85;15.40;;;2.70;99.90;;;1.51;100.00;96102.78;4916295;29;20411;-76
2023/03/07 02:31:50;;;;;;;26.27;15.40;;;2.70;99.90;;;1.54;100.00;96090.13;4917049;29;21160;-75
2023/03/07 02:34:23;;;;;;;23.85;15.43;;;2.70;99.90;;;1.49;100.00;96087.41;4917508;29;20424;-75
2023/03/07 02:36:53;;;;;;;29.50;17.50;;;2.70;99.90;;;1.59;100.00;96083.41;4915999;29;20477;-76
2023/03/07 02:39:22;;;;;;;24.98;15.90;;;2.80;99.90;;;1.53;100.00;96085.13;4917369;29;20514;-75
2023/03/07 02:41:52;;;;;;;23.92;15.15;;;2.80;99.90;;;1.46;100.00;96076.63;4916936;29;20415;-76
2023/03/07 02:44:19;;;;;;;21.17;14.15;;;2.70;99.90;;;1.49;100.00;96070.97;4917253;29;20458;-75
2023/03/07 02:46:45;;;;;;;24.30;14.75;;;2.70;99.90;;;1.48;100.00;96071.97;4917222;29;20831;-76
2023/03/07 02:49:12;;;;;;;27.27;16.42;;;2.70;99.90;;;1.52;100.00;96055.66;4917138;29;20771;-76
2023/03/07 02:51:39;;;;;;;27.23;16.63;;;2.80;99.90;;;1.50;100.00;96055.06;4916693;29;20435;-76
2023/03/07 02:54:05;;;;;;;23.58;15.55;;;2.70;99.90;;;1.55;100.00;96062.22;4916999;29;20409;-76
2023/03/07 02:56:33;;;;;;;25.40;15.57;;;2.80;99.90;;;1.55;100.00;96057.81;4916959;29;20452;-76
2023/03/07 02:58:59;;;;;;;27.17;16.88;;;2.80;99.90;;;1.62;100.00;96062.13;4916920;29;20472;-75
2023/03/07 03:01:27;;;;;;;25.27;15.52;;;2.80;99.90;;;1.59;100.00;96057.34;4916512;29;20413;-75
2023/03/07 03:03:53;;;;;;;26.37;16.53;;;2.80;99.90;;;1.51;100.00;96056.66;4917020;29;20565;-76
2023/03/07 03:06:19;;;;;;;30.20;17.08;;;2.80;99.90;;;1.54;100.00;96053.59;4916799;29;20506;-75
2023/03/07 03:08:44;;;;;;;27.97;16.73;;;2.80;99.90;;;1.43;100.00;96050.97;4915592;29;20532;-76
2023/03/07 03:11:10;;;;;;;28.25;16.00;;;2.70;99.90;;;1.38;100.00;96049.06;4936014;23;20505;-73
2023/03/07 03:13:37;;;;;;;27.02;16.23;;;2.60;99.90;;;1.43;100.00;96051.78;4935186;29;20503;-73
2023/03/07 03:16:03;;;;;;;28.42;16.60;;;2.60;99.90;;;1.33;100.00;96058.59;4935772;29;20416;-74
2023/03/07 03:18:31;;;;;;;25.00;15.40;;;2.60;99.90;;;1.32;100.00;96060.41;4935652;29;20413;-74
2023/03/07 03:20:57;;;;;;;26.60;16.05;;;2.50;99.90;;;1.28;100.00;96058.47;4930183;29;20919;-74
2023/03/07 03:23:26;;;;;;;26.95;16.23;;;2.50;99.90;;;1.24;100.00;96054.72;4915428;29;20409;-74
2023/03/07 03:25:58;;;;;;;25.08;15.00;;;2.50;99.90;;;1.24;100.00;96055.50;4916537;29;20511;-74
2023/03/07 03:28:24;;;;;;;24.98;15.57;;;2.50;99.90;;;1.21;100.00;96052.53;4916579;29;20416;-74
2023/03/07 03:30:57;;;;;;;28.15;17.05;;;2.40;99.90;;;1.28;100.00;96056.63;4916427;29;20520;-74
2023/03/07 03:33:23;;;;;;;27.83;16.88;;;2.50;99.90;;;1.36;100.00;96056.31;4916320;29;20895;-74
2023/03/07 03:35:51;;;;;;;26.98;15.98;;;2.60;99.90;;;1.38;100.00;96053.47;4916452;29;20417;-74
2023/03/07 03:38:16;;;;;;;24.60;15.45;;;2.60;99.90;;;1.33;100.00;96056.78;4916338;29;20467;-74
2023/03/07 03:40:42;;;;;;;24.77;15.35;;;2.60;99.90;;;1.37;100.00;96051.88;4916307;29;20460;-74
2023/03/07 03:43:08;;;;;;;24.90;15.95;;;2.60;99.90;;;1.36;100.00;96047.69;4915992;29;20418;-74
2023/03/07 03:45:34;;;;;;;25.33;15.63;;;2.60;99.90;;;1.40;100.00;96048.84;4916204;29;20459;-74
2023/03/07 03:48:00;;;;;;;25.27;15.50;;;2.60;99.90;;;1.45;100.00;96049.75;4916171;29;20439;-74
2023/03/07 03:50:26;;;;;;;24.92;15.80;;;2.60;99.90;;;1.49;100.00;96043.06;4915963;29;20417;-74
2023/03/07 03:52:53;;;;;;;23.30;15.10;;;2.70;99.90;;;1.52;100.00;96050.44;4915860;29;20440;-74
2023/03/07 03:55:19;;;;;;;27.52;17.13;;;2.70;99.90;;;1.50;100.00;96046.47;4915930;29;20416;-74
2023/03/07 03:57:44;;;;;;;26.53;15.70;;;2.70;99.90;;;1.54;100.00;96045.78;4915995;29;20444;-74
2023/03/07 04:00:14;;;;;;;25.88;15.80;;;2.70;99.90;;;1.53;100.00;96036.38;4915924;29;20417;-74
2023/03/07 04:02:40;;;;;;;26.58;16.10;;;2.70;99.90;;;1.48;100.00;96032.88;4915515;29;20434;-74
2023/03/07 04:05:07;;;;;;;26.33;16.50;;;2.70;99.90;;;1.43;100.00;96038.75;4915851;29;20421;-74
2023/03/07 04:07:33;;;;;;;24.57;16.40;;;2.60;99.90;;;1.43;100.00;96035.34;4915880;29;20414;-74
2023/03/07 04:10:00;;;;;;;28.13;16.77;;;2.60;99.90;;;1.47;100.00;96032.06;4915616;29;20926;-74
2023/03/07 04:12:26;;;;;;;29.17;16.80;;;2.70;99.90;;;1.48;100.00;96035.47;4915214;29;20753;-74
2023/03/07 04:14:52;;;;;;;27.50;16.58;;;2.70;99.90;;;1.45;100.00;96031.50;4915662;29;20511;-74
2023/03/07 04:17:17;;;;;;;29.25;17.23;;;2.70;99.90;;;1.36;100.00;96038.06;4915540;29;20464;-74
2023/03/07 04:19:43;;;;;;;26.15;16.08;;;2.60;99.90;;;1.43;100.00;96027.50;4915569;29;20415;-74
2023/03/07 04:22:09;;;;;;;25.42;16.60;;;2.60;99.90;;;1.45;100.00;96036.72;4915104;29;20468;-73
2023/03/07 04:24:35;;;;;;;28.27;17.13;;;2.70;99.90;;;1.40;100.00;96028.78;4915468;29;20546;-74
2023/03/07 04:27:03;;;;;;;24.30;16.33;;;2.60;99.90;;;1.36;100.00;96030.25;4915418;29;20413;-74
2023/03/07 04:29:29;;;;;;;26.10;16.48;;;2.60;99.90;;;1.33;100.00;96035.13;4915345;29;20938;-74
2023/03/07 04:31:55;;;;;;;26.90;16.10;;;2.60;99.90;;;1.31;100.00;96024.91;4914902;29;20431;-74
2023/03/07 04:34:21;;;;;;;27.40;17.17;;;2.60;99.90;;;1.37;100.00;96020.59;4914975;29;20413;-74
2023/03/07 04:36:47;;;;;;;25.52;16.65;;;2.60;99.90;;;1.34;100.00;96027.09;4915281;29;20811;-74
2023/03/07 04:39:13;;;;;;;26.00;16.23;;;2.60;99.90;;;1.39;100.00;96014.16;4915309;29;20405;-74
2023/03/07 04:41:39;;;;;;;28.23;16.87;;;2.60;99.90;;;1.43;100.00;96019.69;4914617;29;20454;-74
2023/03/07 04:44:06;;;;;;;27.30;16.80;;;2.60;99.90;;;1.43;100.00;96022.31;4915065;29;20494;-74
2023/03/07 04:46:32;;;;;;;33.13;17.83;;;2.70;99.90;;;1.37;100.00;96024.00;4914988;29;20425;-74
2023/03/07 04:48:58;;;;;;;25.92;16.27;;;2.60;99.90;;;1.43;100.00;96015.28;4913577;29;20501;-74
2023/03/07 04:51:24;;;;;;;26.83;16.38;;;2.60;99.90;;;1.42;100.00;96012.91;4913007;29;20566;-74
2023/03/07 04:53:50;;;;;;;28.52;16.15;;;2.60;99.90;;;1.38;100.00;96012.56;4917537;29;20812;-74
2023/03/07 04:56:16;;;;;;;26.70;16.42;;;2.60;99.90;;;1.47;100.00;96011.22;4917236;29;20463;-74
2023/03/07 04:58:43;;;;;;;27.27;15.70;;;2.70;99.90;;;1.44;100.00;96010.84;4920455;29;20442;-74
2023/03/07 05:01:11;;;;;;;25.55;16.02;;;2.60;99.90;;;1.42;100.00;96008.50;4915153;29;20418;-74
2023/03/07 05:03:37;;;;;;;27.57;16.63;;;2.70;99.90;;;1.45;100.00;96009.84;4915981;29;20524;-74
2023/03/07 05:06:05;;;;;;;28.33;16.85;;;2.70;99.90;;;1.40;100.00;96005.31;4915582;29;20432;-74
2023/03/07 05:08:32;;;;;;;27.52;16.17;;;2.60;99.90;;;1.39;100.00;95998.50;4911958;29;20421;-74
2023/03/07 05:10:58;;;;;;;31.20;17.55;;;2.60;99.90;;;1.49;100.00;96003.97;4916676;29;20843;-74
2023/03/07 05:13:24;;;;;;;25.52;16.50;;;2.70;99.90;;;1.48;100.00;95998.97;4913627;28;20955;-74
2023/03/07 05:15:52;;;;;;;28.80;17.20;;;2.70;99.90;;;1.53;100.00;96006.91;4917384;29;20451;-74
2023/03/07 05:18:19;;;;;;;25.77;17.30;;;2.70;99.90;;;1.54;100.00;96000.66;4912023;29;20483;-74
2023/03/07 05:20:46;;;;;;;25.67;16.27;;;2.70;99.90;;;1.54;100.00;95996.25;4917023;29;20492;-74
2023/03/07 05:23:12;;;;;;;31.08;17.48;;;2.70;99.90;;;1.64;100.00;96000.09;4916091;29;20516;-74
2023/03/07 05:25:38;;;;;;;27.35;16.52;;;2.80;99.90;;;1.65;100.00;95991.25;4907112;29;20504;-74
2023/03/07 05:28:03;;;;;;;28.77;16.83;;;2.80;99.90;;;1.55;100.00;95990.00;4903959;29;20513;-73
2023/03/07 05:30:29;;;;;;;27.42;16.45;;;2.80;99.90;;;1.60;100.00;95984.09;4913659;29;20501;-74
2023/03/07 05:32:55;;;;;;;26.95;16.95;;;2.80;99.90;;;1.55;100.00;95990.00;4912882;29;20424;-73
2023/03/07 05:35:24;;;;;;;29.13;17.48;;;2.80;99.90;;;1.63;100.00;95988.88;4913083;29;20440;-74
2023/03/07 05:37:50;;;;;;;27.13;16.90;;;2.80;99.90;;;1.75;100.00;96000.06;4912928;29;20891;-74
2023/03/07 05:40:16;;;;;;;28.48;17.02;;;2.90;99.90;;;1.93;100.00;95994.72;4912842;29;20512;-73
2023/03/07 05:42:42;;;;;;;28.95;17.45;;;3.10;99.90;;;1.81;100.00;95993.13;4913348;29;20413;-74
2023/03/07 05:45:10;;;;;;;26.50;16.60;;;3.00;99.90;;;1.66;100.00;95991.00;4911797;28;20803;-73
2023/03/07 05:47:37;;;;;;;27.00;16.00;;;2.90;99.90;;;1.70;100.00;95996.56;4913529;29;20833;-74
2023/03/07 05:50:05;;;;;;;28.60;17.00;;;2.90;99.90;;;1.70;100.00;95989.53;4913635;29;20441;-74
2023/03/07 05:52:32;;;;;;;29.33;17.30;;;2.90;99.90;;;1.70;100.00;95981.72;4913518;29;20425;-74
2023/03/07 05:54:58;;;;;;;27.15;17.33;;;2.90;99.90;;;1.61;100.00;95988.28;4913850;29;20451;-74
2023/03/07 05:57:24;;;;;;;30.23;17.53;;;2.90;99.90;;;1.67;100.00;95984.75;4913948;29;20784;-74
2023/03/07 05:59:49;;;;;;;27.70;17.40;;;2.90;99.90;;;1.67;100.00;95997.00;4914043;29;20425;-75
2023/03/07 06:02:15;;;;;;;26.17;16.73;;;2.80;99.90;;;1.65;100.00;95988.66;4913643;29;20401;-75
2023/03/07 06:04:41;;;;;;;26.57;16.63;;;2.80;99.90;;;1.59;100.00;95981.72;4913667;29;20416;-74
2023/03/07 06:07:07;;;;;;;25.75;15.95;;;2.80;99.90;;;1.53;100.00;95978.22;4913640;29;20421;-74
2023/03/07 06:09:34;;;;;;;28.42;16.98;;;2.80;99.90;;;1.55;100.00;95979.56;4913912;29;20458;-74
2023/03/07 06:12:00;;;;;;;28.38;17.15;;;2.70;99.90;;;1.64;100.00;95969.59;4911614;29;20432;-74
2023/03/07 06:14:26;;;;;;;24.10;15.57;;;2.80;99.90;;;1.64;100.00;95963.59;4913832;29;20417;-74
2023/03/07 06:16:52;;;;;;;27.38;16.75;;;2.80;99.90;;;1.62;100.00;95965.63;4899167;29;20759;-74
2023/03/07 06:19:18;;;;;;;24.42;15.43;;;2.80;99.90;;;1.65;100.00;95965.16;4893395;29;20512;-74
2023/03/07 06:21:44;;;;;;;27.43;16.20;;;2.80;99.90;;;1.59;100.00;95959.03;4902474;29;20496;-73
2023/03/07 06:24:10;;;;;;;25.48;16.33;;;2.80;99.90;;;1.54;100.00;95966.75;4913402;29;20505;-74
2023/03/07 06:26:37;;;;;;;27.33;16.05;;;2.80;99.90;;;1.60;100.00;95968.44;4913366;29;20440;-74
2023/03/07 06:29:03;;;;;;;27.08;16.45;;;2.80;99.90;;;1.57;100.00;95962.91;4912493;29;20409;-74
2023/03/07 06:31:29;;;;;;;21.42;14.65;;;2.80;99.90;;;1.60;100.00;95965.84;4913468;29;20942;-74
2023/03/07 06:33:55;;;;;;;25.42;16.83;;;2.80;99.90;;;1.67;100.00;95970.94;4928349;28;20461;-74
2023/03/07 06:36:21;;;;;;;26.15;16.17;;;2.90;99.90;;;1.79;100.00;95980.34;4913787;29;20432;-74
2023/03/07 06:38:47;;;;;;;22.67;15.30;;;2.90;99.90;;;1.73;100.00;95976.03;4913814;29;20963;-74
2023/03/07 06:41:13;;;;;;;25.63;16.20;;;2.90;99.90;;;1.80;100.00;95981.13;4913668;29;20417;-74
2023/03/07 06:43:40;;;;;;;25.98;15.90;;;3.00;99.90;;;1.79;100.00;95971.72;4913518;29;20467;-74
2023/03/07 06:46:06;;;;;;;25.88;14.95;;;3.00;99.90;;;1.82;100.00;95971.25;4913648;29;20443;-74
2023/03/07 06:48:33;;;;;;;24.85;14.88;;;3.00;99.90;;;1.82;100.00;95976.47;4913664;29;20413;-74
2023/03/07 06:51:04;;;;;;;24.83;15.53;;;3.00;99.90;;;2.00;100.00;95978.13;4912795;29;20465;-74
2023/03/07 06:53:30;;;;;;;23.90;15.27;;;3.10;99.90;;;1.97;100.00;95973.34;4913324;29;20471;-74
2023/03/07 06:55:56;;;;;;;25.70;15.20;;;3.20;99.90;;;2.00;100.00;95978.13;4913388;29;20424;-74
2023/03/07 06:58:22;;;;;;;24.57;15.03;;;3.20;99.90;;;1.93;100.00;95981.66;4915101;29;20531;-73
2023/03/07 07:00:49;;;;;;;23.58;14.50;;;3.10;99.90;;;1.94;100.00;95974.63;4916508;29;20484;-74
2023/03/07 07:03:17;;;;;;;24.67;15.27;;;3.10;99.90;;;2.02;100.00;95969.06;4916441;29;20424;-74
2023/03/07 07:05:42;;;;;;;22.85;14.80;;;3.20;99.90;;;2.04;100.00;95967.00;4916886;29;20468;-74
2023/03/07 07:08:08;;;;;;;21.08;13.23;;;3.20;99.90;;;2.05;100.00;95973.00;4917003;29;20440;-74
2023/03/07 07:10:35;;;;;;;23.03;14.47;;;3.20;99.90;;;2.16;100.00;95972.19;4915244;29;20428;-73
2023/03/07 07:13:01;;;;;;;22.75;15.15;;;3.30;99.90;;;2.25;100.00;95982.03;4916658;29;20891;-73
2023/03/07 07:15:27;;;;;;;22.58;14.13;;;3.40;99.90;;;2.27;100.00;95977.34;4916794;29;20426;-74
2023/03/07 07:17:54;;;;;;;23.40;15.37;;;3.40;99.90;;;2.33;100.00;95976.41;4916746;29;20782;-74
2023/03/07 07:20:20;;;;;;;22.98;15.32;;;3.50;99.90;;;2.51;100.00;95975.44;4916593;29;20518;-73
2023/03/07 07:22:46;;;;;;;21.63;14.60;;;3.60;99.90;;;2.48;100.00;95972.50;4916422;29;20461;-73
2023/03/07 07:25:12;;;;;;;22.42;13.13;;;3.60;99.90;;;2.46;100.00;95969.34;4915371;29;20417;-74
2023/03/07 07:27:38;;;;;;;23.63;14.85;;;3.60;99.90;;;2.46;100.00;95972.75;4916605;29;20919;-74
2023/03/07 07:30:07;;;;;;;21.75;14.55;;;3.60;99.90;;;2.52;100.00;95957.94;4916537;29;20405;-74
2023/03/07 07:32:33;;;;;;;23.92;14.65;;;3.60;99.90;;;2.49;100.00;95974.06;4914776;29;20903;-73
2023/03/07 07:35:00;;;;;;;22.47;14.63;;;3.70;99.90;;;2.55;100.00;95976.56;4916558;29;20417;-74
2023/03/07 07:37:26;;;;;;;23.33;14.70;;;3.70;99.90;;;2.78;100.00;95967.81;4916506;29;20895;-73
2023/03/07 07:39:52;;;;;;;21.02;14.25;;;3.90;99.90;;;2.77;100.00;95973.28;4916389;29;20948;-74
2023/03/07 07:42:18;;;;;;;23.35;14.52;;;3.90;99.90;;;2.75;100.00;95972.69;4916048;29;20738;-73
2023/03/07 07:44:45;;;;;;;21.37;13.53;;;3.90;99.90;;;2.83;100.00;95973.13;4916310;29;20451;-74
2023/03/07 07:47:11;;;;;;;23.65;15.15;;;4.00;99.90;;;3.05;100.00;95981.03;4916139;29;20558;-74
2023/03/07 07:49:37;;;;;;;21.05;14.13;;;4.20;99.90;;;3.24;100.00;95974.53;4916145;29;20417;-73
2023/03/07 07:52:05;;;;;;;22.10;14.63;;;4.20;99.90;;;3.06;100.00;95977.41;4914236;29;20436;-73
2023/03/07 07:54:31;;;;;;;22.35;13.52;;;4.20;99.90;;;2.91;100.00;95969.31;4916061;29;20992;-74
2023/03/07 07:56:57;;;;;;;19.15;13.13;;;4.10;99.90;;;2.94;100.00;95971.44;4915998;29;20480;-74
2023/03/07 07:59:23;;;;;;;22.08;14.25;;;4.10;99.90;;;2.96;100.00;95967.56;4916076;29;20417;-74
2023/03/07 08:01:49;;;;;;;24.20;14.38;;;4.10;99.90;;;3.07;100.00;95973.75;4915585;29;20823;-74
2023/03/07 08:04:15;;;;;;;23.73;14.38;;;4.20;99.90;;;3.02;100.00;95968.44;4915982;29;20413;-74
2023/03/07 08:06:43;;;;;;;19.57;13.83;;;4.10;99.90;;;3.17;100.00;95962.63;4915930;29;20953;-74
2023/03/07 08:09:10;;;;;;;22.13;14.75;;;4.30;99.90;;;3.15;100.00;95962.13;4915560;29;20456;-74
2023/03/07 08:11:36;;;;;;;19.73;13.63;;;4.30;99.90;;;3.04;100.00;95967.19;4915044;29;20520;-74
2023/03/07 08:14:02;;;;;;;22.90;14.35;;;4.20;99.90;;;3.16;100.00;95961.84;4915679;29;20473;-74
2023/03/07 08:16:28;;;;;;;19.52;13.13;;;4.30;99.90;;;3.10;100.00;95971.44;4915823;29;20509;-74
2023/03/07 08:18:56;;;;;;;22.65;13.40;;;4.30;99.90;;;3.08;100.00;95965.66;4915578;29;20493;-75
2023/03/07 08:21:23;;;;;;;22.25;13.93;;;4.20;99.90;;;3.28;100.00;95964.38;4915277;29;20456;-75
2023/03/07 08:23:49;;;;;;;24.30;14.23;;;4.30;99.90;;;3.56;100.00;95968.69;4915521;29;20439;-75
2023/03/07 08:26:16;;;;;;;22.75;14.50;;;4.50;99.90;;;3.46;100.00;95953.66;4915499;29;20975;-74
2023/03/07 08:28:42;;;;;;;25.75;14.68;;;4.60;99.90;;;3.44;100.00;95955.72;4915414;29;20462;-74
2023/03/07 08:31:11;;;;;;;22.00;13.97;;;4.60;99.90;;;3.55;100.00;95959.25;4915214;29;20512;-74
2023/03/07 08:33:37;;;;;;;24.92;14.50;;;4.70;99.90;;;3.79;100.00;95956.19;4915211;29;20452;-74
2023/03/07 08:36:04;;;;;;;24.08;14.70;;;4.80;99.90;;;3.93;100.00;95961.84;4915494;29;20842;-74
2023/03/07 08:38:30;;;;;;;23.02;13.68;;;5.00;99.90;;;3.95;100.00;95951.94;4915286;29;20913;-74
2023/03/07 08:40:59;;;;;;;24.20;14.18;;;5.10;99.90;;;3.91;100.00;95950.06;4915004;29;20416;-74
2023/03/07 08:43:27;;;;;;;20.33;13.70;;;5.00;99.90;;;4.05;100.00;95936.34;4915055;29;20539;-74
2023/03/07 08:45:54;;;;;;;21.15;13.82;;;5.10;99.90;;;4.11;100.00;95942.44;4915217;29;20447;-74
2023/03/07 08:48:19;;;;;;;20.92;13.80;;;5.20;99.90;;;4.07;100.00;95943.94;4915198;29;20413;-73
2023/03/07 08:50:46;;;;;;;22.67;14.17;;;5.10;99.90;;;4.13;100.00;95945.59;4914975;29;20451;-73
2023/03/07 08:53:12;;;;;;;18.50;12.60;;;5.20;99.90;;;4.25;100.00;95933.94;4914685;29;20893;-73
2023/03/07 08:55:38;;;;;;;21.48;13.43;;;5.30;99.90;;;4.48;100.00;95937.31;4915010;29;20484;-73
2023/03/07 08:58:04;;;;;;;17.70;12.35;;;5.50;99.90;;;4.45;100.00;95940.41;4914819;29;20410;-74
2023/03/07 09:00:31;;;;;;;21.00;12.45;;;5.50;99.90;;;4.45;100.00;95932.56;4914987;29;20836;-74
2023/03/07 09:02:57;;;;;;;20.27;12.25;;;5.50;99.90;;;4.54;100.00;95926.63;4914463;29;20417;-74
2023/03/07 09:05:23;;;;;;;21.67;13.48;;;5.60;99.90;;;4.73;100.00;95939.38;4914770;29;20440;-74
2023/03/07 09:07:49;;;;;;;18.50;11.93;;;5.70;99.90;;;4.79;100.00;95941.00;4914908;29;20417;-74
2023/03/07 09:10:18;;;;;;;18.15;12.07;;;5.80;99.90;;;4.80;100.00;95942.59;4914725;29;20410;-73
2023/03/07 09:12:44;;;;;;;19.83;13.25;;;5.90;99.90;;;4.79;100.00;95933.94;4942747;23;20489;-82
2023/03/07 09:15:10;;;;;;;18.15;11.95;;;5.70;99.90;;;4.72;100.00;95928.09;4934658;29;20501;-82
2023/03/07 09:17:37;;;;;;;18.27;11.30;;;5.80;99.90;;;4.61;100.00;95929.03;4934121;29;20419;-81
2023/03/07 09:20:05;;;;;;;21.77;12.43;;;5.70;99.90;;;4.62;100.00;95917.53;4933623;29;20883;-81
2023/03/07 09:22:31;;;;;;;14.95;10.40;;;5.70;99.90;;;4.63;100.00;95921.72;4922479;29;20401;-81
2023/03/07 09:24:57;;;;;;;18.00;11.00;;;5.70;99.90;;;4.75;100.00;95909.25;4913388;29;21063;-82
2023/03/07 09:27:23;;;;;;;16.38;10.50;;;5.80;99.90;;;4.70;100.00;95913.66;4914442;29;20421;-81
2023/03/07 09:29:49;;;;;;;18.23;10.43;;;5.70;99.90;;;4.81;100.00;95920.56;4914506;29;20413;-82
2023/03/07 09:32:15;;;;;;;15.93;10.60;;;5.80;99.90;;;4.93;100.00;95921.19;4912723;29;20501;-81
2023/03/07 09:34:42;;;;;;;17.40;10.13;;;5.90;99.90;;;4.67;100.00;95915.72;4914287;29;20413;-83
2023/03/07 09:37:09;;;;;;;17.52;10.13;;;5.80;99.90;;;4.55;100.00;95920.34;4914302;29;20425;-82
2023/03/07 09:39:35;;;;;;;14.77;10.00;;;5.70;99.90;;;4.42;100.00;95936.47;4914432;29;20413;-83
2023/03/07 09:42:16;;;;;;;16.23;10.05;;;5.50;98.20;;;4.46;100.00;95921.03;4914114;29;20757;-82
2023/03/07 09:45:13;;;;;;;14.35;10.10;;;5.60;99.70;;;4.46;100.00;95924.44;4914279;29;20724;-82
2023/03/07 09:48:06;;;;;;;15.40;9.73;;;5.60;99.90;;;4.38;100.00;95924.09;4914285;29;20426;-82
2023/03/07 09:50:40;;;;;;;17.63;10.32;;;5.40;99.90;;;4.44;100.00;95923.91;4914451;29;20910;-82
2023/03/07 09:53:17;;;;;;;14.75;9.18;;;5.50;99.90;;;4.19;100.00;95934.94;4913808;29;20425;-82
2023/03/07 09:55:44;;;;;;;18.10;9.38;;;5.30;96.50;;;3.99;98.33;95913.75;4914117;29;20404;-82
2023/03/07 09:58:17;;;;;;;16.40;9.20;;;5.10;95.00;;;4.14;100.00;95929.63;4914137;29;20420;-82
2023/03/07 10:00:44;;;;;;;14.13;9.63;;;5.10;99.90;;;4.13;100.00;95922.03;4914375;29;20842;-80
2023/03/07 10:03:24;;;;;;;13.40;8.52;;;5.20;99.90;;;3.97;100.00;95917.66;4913985;29;20412;-82
2023/03/07 10:05:56;;;;;;;15.05;9.75;;;5.10;99.70;;;4.08;100.00;95907.03;4914029;29;20875;-82
2023/03/07 10:08:26;;;;;;;14.77;9.50;;;5.10;99.90;;;4.16;100.00;95905.81;4914306;29;20434;-82
2023/03/07 10:11:02;;;;;;;13.53;9.30;;;5.20;99.90;;;3.95;100.00;95915.28;4913950;29;20413;-82
2023/03/07 10:13:45;;;;;;;15.90;9.67;;;5.10;97.10;;;4.05;100.00;95904.16;4914061;29;20426;-81